Time;durP1;ratioP1;P1;durP2;ratioP2;P2;SDS_P1;SDS_P2;PMS_P1;PMS_P2;Temp;Humidity;BMP_temperature;BMP_pressure;BME280_temperature;BME280_humidity;BME280_pressure;Samples;Min_cycle;Max_cycle;Signal;HPM_P1;HPM_P2
2024/01/08 00:02:21;;;;;;;11.52;4.75;;;;;;;;;;5090931;28;20074;-68
2024/01/08 00:04:46;;;;;;;9.77;5.80;;;;;;;;;;5091325;28;20048;-69
2024/01/08 00:07:11;;;;;;;7.93;4.57;;;;;;;;;;5091979;28;20028;-68
2024/01/08 00:09:37;;;;;;;8.98;5.50;;;;;;;;;;5091304;28;20023;-68
2024/01/08 00:12:02;;;;;;;7.20;4.22;;;;;;;;;;5091466;28;20065;-68
2024/01/08 00:14:27;;;;;;;8.05;4.65;;;;;;;;;;5091611;28;20020;-68
2024/01/08 00:16:53;;;;;;;7.63;3.97;;;;;;;;;;5090747;28;20065;-68
2024/01/08 00:19:18;;;;;;;7.40;4.53;;;;;;;;;;5091483;28;20039;-68
2024/01/08 00:21:43;;;;;;;8.13;4.53;;;;;;;;;;5087438;28;20051;-68
2024/01/08 00:24:09;;;;;;;6.68;3.92;;;;;;;;;;5083440;28;20020;-69
2024/01/08 00:26:34;;;;;;;8.32;4.50;;;;;;;;;;5091228;28;20052;-69
2024/01/08 00:28:59;;;;;;;7.63;4.32;;;;;;;;;;5090893;28;20073;-69
2024/01/08 00:31:24;;;;;;;10.10;5.47;;;;;;;;;;5089574;28;20016;-70
2024/01/08 00:33:50;;;;;;;7.78;5.10;;;;;;;;;;5090799;28;20020;-68
2024/01/08 00:36:15;;;;;;;8.20;5.57;;;;;;;;;;5091532;28;20024;-69
2024/01/08 00:38:40;;;;;;;9.40;6.22;;;;;;;;;;5088830;28;20031;-69
2024/01/08 00:41:06;;;;;;;10.27;5.57;;;;;;;;;;5090517;28;20028;-69
2024/01/08 00:43:31;;;;;;;10.02;6.00;;;;;;;;;;5090134;28;20020;-69
2024/01/08 00:45:56;;;;;;;11.73;6.97;;;;;;;;;;5084431;28;20103;-69
2024/01/08 00:48:21;;;;;;;11.73;6.82;;;;;;;;;;5083326;28;20297;-69
2024/01/08 00:50:48;;;;;;;12.10;6.00;;;;;;;;;;5086226;28;20385;-69
2024/01/08 00:53:13;;;;;;;11.73;7.07;;;;;;;;;;5087183;28;20035;-69
2024/01/08 00:55:38;;;;;;;14.07;7.35;;;;;;;;;;5082144;28;20371;-69
2024/01/08 00:58:03;;;;;;;13.43;7.65;;;;;;;;;;5088820;28;20427;-69
2024/01/08 01:00:28;;;;;;;10.52;6.20;;;;;;;;;;5079352;28;20447;-69
2024/01/08 01:02:54;;;;;;;9.80;6.20;;;;;;;;;;5090417;28;20470;-69
2024/01/08 01:05:19;;;;;;;10.10;6.35;;;;;;;;;;5089707;28;20059;-69
2024/01/08 01:07:44;;;;;;;10.25;6.22;;;;;;;;;;5091230;28;20099;-69
2024/01/08 01:10:10;;;;;;;8.90;6.50;;;;;;;;;;5086403;28;20025;-69
2024/01/08 01:12:35;;;;;;;11.32;6.85;;;;;;;;;;5082431;28;20023;-69
2024/01/08 01:15:00;;;;;;;11.20;6.13;;;;;;;;;;5092338;28;20038;-69
2024/01/08 01:17:25;;;;;;;11.73;6.35;;;;;;;;;;5091915;28;20039;-69
2024/01/08 01:19:51;;;;;;;10.30;6.55;;;;;;;;;;5093600;28;20027;-68
2024/01/08 01:22:16;;;;;;;10.77;6.93;;;;;;;;;;5093218;28;20028;-68
2024/01/08 01:24:41;;;;;;;10.38;6.40;;;;;;;;;;5093339;28;20128;-68
2024/01/08 01:27:06;;;;;;;9.52;5.65;;;;;;;;;;5093411;28;20091;-68
2024/01/08 01:29:32;;;;;;;9.98;6.30;;;;;;;;;;5094163;28;20435;-68
2024/01/08 01:31:57;;;;;;;13.93;7.22;;;;;;;;;;5093895;28;20364;-69
2024/01/08 01:34:22;;;;;;;10.55;6.88;;;;;;;;;;5093261;28;20458;-69
2024/01/08 01:36:48;;;;;;;11.65;6.93;;;;;;;;;;5093352;28;20475;-68
2024/01/08 01:39:13;;;;;;;13.02;6.95;;;;;;;;;;5093673;28;20027;-68
2024/01/08 01:41:38;;;;;;;12.63;6.65;;;;;;;;;;5094295;28;20035;-68
2024/01/08 01:44:04;;;;;;;11.93;6.65;;;;;;;;;;5092907;28;20024;-68
2024/01/08 01:46:32;;;;;;;10.30;6.15;;;;;;;;;;5092795;28;20142;-68
2024/01/08 01:48:57;;;;;;;9.77;6.30;;;;;;;;;;5087590;28;20054;-68
2024/01/08 01:51:22;;;;;;;9.95;6.22;;;;;;;;;;5087194;28;20062;-68
2024/01/08 01:53:48;;;;;;;10.55;6.22;;;;;;;;;;5086685;28;20039;-68
2024/01/08 01:56:13;;;;;;;11.02;7.00;;;;;;;;;;5086333;28;20066;-68
2024/01/08 01:58:39;;;;;;;10.43;5.88;;;;;;;;;;5091436;28;20433;-69
2024/01/08 02:01:05;;;;;;;10.60;6.38;;;;;;;;;;5086952;28;20689;-68
2024/01/08 02:03:31;;;;;;;9.30;6.88;;;;;;;;;;5088857;28;20028;-69
2024/01/08 02:05:56;;;;;;;8.93;5.50;;;;;;;;;;5089655;28;20547;-69
2024/01/08 02:08:22;;;;;;;7.70;5.28;;;;;;;;;;5087282;28;20059;-69
2024/01/08 02:10:47;;;;;;;7.70;4.78;;;;;;;;;;5082397;28;20139;-69
2024/01/08 02:13:12;;;;;;;9.40;5.50;;;;;;;;;;5087232;28;20032;-69
2024/01/08 02:15:38;;;;;;;9.32;5.32;;;;;;;;;;5086778;28;20402;-69
2024/01/08 02:18:03;;;;;;;9.27;5.32;;;;;;;;;;5086412;28;20139;-69
2024/01/08 02:20:28;;;;;;;6.88;4.68;;;;;;;;;;5088508;28;20509;-68
2024/01/08 02:22:54;;;;;;;7.18;4.45;;;;;;;;;;5093028;28;20102;-69
2024/01/08 02:25:19;;;;;;;6.43;4.10;;;;;;;;;;5092553;28;20012;-69
2024/01/08 02:27:45;;;;;;;5.57;3.55;;;;;;;;;;5088740;28;20016;-70
2024/01/08 02:30:10;;;;;;;5.43;3.60;;;;;;;;;;5087556;28;20032;-70
2024/01/08 02:32:35;;;;;;;5.40;3.33;;;;;;;;;;5090635;28;20028;-69
2024/01/08 02:35:01;;;;;;;6.03;3.53;;;;;;;;;;5079497;28;20031;-69
2024/01/08 02:37:26;;;;;;;5.25;3.25;;;;;;;;;;5087805;28;20036;-70
2024/01/08 02:39:51;;;;;;;5.90;3.45;;;;;;;;;;5091393;28;20362;-70
2024/01/08 02:42:18;;;;;;;5.70;2.75;;;;;;;;;;5093008;28;20112;-70
2024/01/08 02:44:43;;;;;;;4.65;2.42;;;;;;;;;;5090350;28;20115;-69
2024/01/08 02:47:09;;;;;;;4.88;3.03;;;;;;;;;;5092370;28;20091;-70
2024/01/08 02:49:34;;;;;;;5.72;3.47;;;;;;;;;;5092391;28;20099;-70
2024/01/08 02:51:59;;;;;;;5.13;3.20;;;;;;;;;;5090688;28;20536;-70
2024/01/08 02:54:24;;;;;;;5.68;3.30;;;;;;;;;;5092040;28;20024;-70
2024/01/08 02:56:50;;;;;;;6.60;3.60;;;;;;;;;;5092705;28;20481;-70
2024/01/08 02:59:15;;;;;;;6.28;3.97;;;;;;;;;;5093211;28;20370;-70
2024/01/08 03:01:40;;;;;;;8.02;4.72;;;;;;;;;;5091498;28;20522;-70
2024/01/08 03:04:06;;;;;;;7.75;4.30;;;;;;;;;;5092568;28;20028;-70
2024/01/08 03:06:31;;;;;;;6.68;4.40;;;;;;;;;;5092373;28;20036;-70
2024/01/08 03:08:56;;;;;;;8.73;5.18;;;;;;;;;;5091362;28;20065;-70
2024/01/08 03:11:21;;;;;;;7.82;4.50;;;;;;;;;;5092681;28;20024;-70
2024/01/08 03:13:46;;;;;;;6.97;4.68;;;;;;;;;;5086005;28;20181;-70
2024/01/08 03:16:12;;;;;;;7.53;4.60;;;;;;;;;;5084897;28;20126;-69
2024/01/08 03:18:37;;;;;;;7.38;4.68;;;;;;;;;;5086710;28;20391;-69
2024/01/08 03:21:03;;;;;;;8.25;5.25;;;;;;;;;;5091422;28;20344;-69
2024/01/08 03:23:28;;;;;;;8.35;5.05;;;;;;;;;;5091869;28;20428;-69
2024/01/08 03:25:53;;;;;;;6.38;4.15;;;;;;;;;;5085860;28;20421;-69
2024/01/08 03:28:18;;;;;;;7.63;4.72;;;;;;;;;;5091889;28;20024;-69
2024/01/08 03:30:44;;;;;;;6.78;4.13;;;;;;;;;;5092426;28;20028;-69
2024/01/08 03:33:09;;;;;;;8.75;4.45;;;;;;;;;;5092688;28;20386;-69
2024/01/08 03:35:34;;;;;;;8.38;4.55;;;;;;;;;;5091134;28;20026;-70
2024/01/08 03:38:00;;;;;;;6.90;4.07;;;;;;;;;;5091977;28;20020;-70
2024/01/08 03:40:25;;;;;;;8.38;4.70;;;;;;;;;;5089952;28;20103;-70
2024/01/08 03:42:50;;;;;;;7.10;4.28;;;;;;;;;;5074210;28;20031;-70
2024/01/08 03:45:16;;;;;;;7.40;4.95;;;;;;;;;;5091567;28;20083;-70
2024/01/08 03:47:41;;;;;;;6.95;4.25;;;;;;;;;;5091923;28;20020;-70
2024/01/08 03:50:06;;;;;;;7.65;4.60;;;;;;;;;;5089755;28;20115;-70
2024/01/08 03:52:32;;;;;;;8.15;3.95;;;;;;;;;;5086892;28;20056;-70
2024/01/08 03:54:57;;;;;;;7.80;4.90;;;;;;;;;;5088428;28;20030;-70
2024/01/08 03:57:23;;;;;;;8.20;3.88;;;;;;;;;;5091116;28;20069;-70
2024/01/08 03:59:48;;;;;;;6.70;3.85;;;;;;;;;;5091807;28;20028;-70
2024/01/08 04:02:13;;;;;;;7.97;4.47;;;;;;;;;;5091355;28;20031;-70
2024/01/08 04:04:39;;;;;;;7.90;4.05;;;;;;;;;;5090624;28;20023;-70
2024/01/08 04:07:05;;;;;;;9.07;4.32;;;;;;;;;;5087115;28;20019;-70
2024/01/08 04:09:30;;;;;;;7.30;4.40;;;;;;;;;;5089964;28;20085;-70
2024/01/08 04:11:55;;;;;;;9.23;4.10;;;;;;;;;;5080965;28;20565;-70
2024/01/08 04:14:20;;;;;;;7.53;4.22;;;;;;;;;;5091024;28;20463;-70
2024/01/08 04:16:45;;;;;;;7.57;3.78;;;;;;;;;;5090737;28;20028;-70
2024/01/08 04:19:11;;;;;;;6.35;4.35;;;;;;;;;;5090434;28;20017;-69
2024/01/08 04:21:36;;;;;;;6.63;4.03;;;;;;;;;;5091502;28;20023;-69
2024/01/08 04:24:01;;;;;;;7.97;5.35;;;;;;;;;;5072959;28;20122;-69
2024/01/08 04:26:27;;;;;;;7.82;5.13;;;;;;;;;;5083361;28;20099;-69
2024/01/08 04:28:52;;;;;;;9.20;5.28;;;;;;;;;;5090501;28;20424;-69
2024/01/08 04:31:20;;;;;;;9.57;5.22;;;;;;;;;;5091084;28;20498;-71
2024/01/08 04:33:45;;;;;;;9.18;5.63;;;;;;;;;;5091636;28;20044;-70
2024/01/08 04:36:12;;;;;;;10.65;6.60;;;;;;;;;;5090456;28;20530;-70
2024/01/08 04:38:37;;;;;;;7.97;5.05;;;;;;;;;;5072461;28;20372;-70
2024/01/08 04:41:02;;;;;;;8.82;5.70;;;;;;;;;;5091194;28;20082;-71
2024/01/08 04:43:27;;;;;;;10.65;5.78;;;;;;;;;;5090098;28;20024;-70
2024/01/08 04:45:52;;;;;;;11.15;5.30;;;;;;;;;;5091062;28;20016;-70
2024/01/08 04:48:18;;;;;;;8.48;5.03;;;;;;;;;;5091112;28;20024;-70
2024/01/08 04:50:43;;;;;;;9.85;5.07;;;;;;;;;;5094349;28;20016;-69
2024/01/08 04:53:08;;;;;;;8.52;4.35;;;;;;;;;;5094582;28;20050;-71
2024/01/08 04:55:33;;;;;;;7.60;5.18;;;;;;;;;;5093537;28;20028;-70
2024/01/08 04:57:58;;;;;;;10.65;5.18;;;;;;;;;;5085101;28;20103;-69
2024/01/08 05:00:24;;;;;;;7.68;4.68;;;;;;;;;;5093220;28;20091;-70
2024/01/08 05:02:49;;;;;;;8.27;4.63;;;;;;;;;;5094619;28;20027;-70
2024/01/08 05:05:14;;;;;;;7.10;4.57;;;;;;;;;;5092967;28;20482;-69
2024/01/08 05:07:39;;;;;;;12.80;5.30;;;;;;;;;;5094828;28;20153;-69
2024/01/08 05:10:05;;;;;;;8.32;5.53;;;;;;;;;;5093771;28;20126;-69
2024/01/08 05:12:30;;;;;;;7.72;4.80;;;;;;;;;;5092807;28;20024;-69
2024/01/08 05:14:55;;;;;;;10.07;5.13;;;;;;;;;;5094117;28;20028;-70
2024/01/08 05:17:21;;;;;;;8.07;5.18;;;;;;;;;;5093265;28;20099;-69
2024/01/08 05:19:46;;;;;;;9.00;5.13;;;;;;;;;;5093101;28;20056;-70
2024/01/08 05:22:11;;;;;;;9.20;5.35;;;;;;;;;;5092910;28;20020;-69
2024/01/08 05:24:36;;;;;;;7.70;5.05;;;;;;;;;;5093821;28;20519;-69
2024/01/08 05:27:02;;;;;;;9.00;5.18;;;;;;;;;;5092503;28;20470;-69
2024/01/08 05:29:27;;;;;;;9.73;5.15;;;;;;;;;;5094252;28;20524;-69
2024/01/08 05:31:52;;;;;;;7.47;4.68;;;;;;;;;;5093427;28;20478;-69
2024/01/08 05:34:17;;;;;;;9.57;5.22;;;;;;;;;;5094041;28;20023;-69
2024/01/08 05:36:42;;;;;;;9.05;5.07;;;;;;;;;;5092681;28;20073;-69
2024/01/08 05:39:08;;;;;;;9.93;5.70;;;;;;;;;;5093801;28;20058;-69
2024/01/08 05:41:34;;;;;;;7.78;4.95;;;;;;;;;;5080477;28;20025;-69
2024/01/08 05:43:59;;;;;;;9.27;5.35;;;;;;;;;;5093396;28;20024;-69
2024/01/08 05:46:24;;;;;;;9.30;5.22;;;;;;;;;;5093176;28;20084;-69
2024/01/08 05:48:49;;;;;;;9.98;5.72;;;;;;;;;;5093050;28;20466;-68
2024/01/08 05:51:17;;;;;;;11.57;5.13;;;;;;;;;;5093867;28;20452;-69
2024/01/08 05:53:42;;;;;;;8.50;5.35;;;;;;;;;;5093569;28;20032;-69
2024/01/08 05:56:08;;;;;;;8.38;4.35;;;;;;;;;;5093817;28;20385;-69
2024/01/08 05:58:33;;;;;;;9.57;5.90;;;;;;;;;;5090683;28;21332;-69
2024/01/08 06:00:59;;;;;;;10.30;5.13;;;;;;;;;;5093335;28;20519;-69
2024/01/08 06:03:24;;;;;;;10.18;5.85;;;;;;;;;;5093447;28;20024;-69
2024/01/08 06:05:49;;;;;;;8.93;5.53;;;;;;;;;;5092950;28;20032;-69
2024/01/08 06:08:15;;;;;;;9.40;5.80;;;;;;;;;;5093494;28;20470;-69
2024/01/08 06:10:40;;;;;;;8.70;5.43;;;;;;;;;;5093324;28;20023;-69
2024/01/08 06:13:06;;;;;;;8.25;4.82;;;;;;;;;;5093620;28;20092;-69
2024/01/08 06:15:31;;;;;;;12.10;5.78;;;;;;;;;;5092772;28;20039;-70
2024/01/08 06:17:56;;;;;;;8.20;5.70;;;;;;;;;;5092351;28;20542;-69
2024/01/08 06:20:21;;;;;;;10.23;5.35;;;;;;;;;;5092691;28;20474;-69
2024/01/08 06:22:47;;;;;;;11.20;5.15;;;;;;;;;;5093000;28;20496;-69
2024/01/08 06:25:12;;;;;;;10.82;6.50;;;;;;;;;;5092565;28;20020;-69
2024/01/08 06:27:37;;;;;;;8.23;5.43;;;;;;;;;;5092486;28;20027;-69
2024/01/08 06:30:02;;;;;;;8.75;5.53;;;;;;;;;;5093139;28;20140;-69
2024/01/08 06:32:28;;;;;;;9.35;5.82;;;;;;;;;;5092650;28;20070;-69
2024/01/08 06:34:53;;;;;;;14.38;5.88;;;;;;;;;;5092713;28;20050;-70
2024/01/08 06:37:18;;;;;;;10.18;5.30;;;;;;;;;;5092546;28;20103;-68
2024/01/08 06:39:43;;;;;;;11.13;6.65;;;;;;;;;;5092007;28;20081;-69
2024/01/08 06:42:09;;;;;;;11.38;6.13;;;;;;;;;;5092924;28;20028;-68
2024/01/08 06:44:34;;;;;;;9.68;6.05;;;;;;;;;;5089010;28;20101;-68
2024/01/08 06:46:59;;;;;;;9.45;5.80;;;;;;;;;;5074148;28;20036;-68
2024/01/08 06:49:24;;;;;;;7.20;5.00;;;;;;;;;;5093411;28;20035;-68
2024/01/08 06:51:49;;;;;;;10.55;5.65;;;;;;;;;;5091068;28;20023;-68
2024/01/08 06:54:15;;;;;;;9.88;5.90;;;;;;;;;;5092599;28;20032;-70
2024/01/08 06:56:40;;;;;;;8.85;5.68;;;;;;;;;;5091591;28;20536;-70
2024/01/08 06:59:05;;;;;;;11.32;5.93;;;;;;;;;;5091983;28;20016;-70
2024/01/08 07:01:30;;;;;;;8.60;4.55;;;;;;;;;;5091724;28;20016;-70
2024/01/08 07:03:56;;;;;;;9.77;5.82;;;;;;;;;;5092739;28;20023;-70
2024/01/08 07:06:21;;;;;;;7.25;5.22;;;;;;;;;;5091548;28;20047;-70
2024/01/08 07:08:46;;;;;;;10.35;6.03;;;;;;;;;;5092182;28;20093;-69
2024/01/08 07:11:22;;;;;;;14.45;6.78;;;;;;;;;;5090690;28;20240;-69
2024/01/08 07:13:48;;;;;;;10.52;6.03;;;;;;;;;;5091501;28;20105;-69
2024/01/08 07:16:14;;;;;;;8.77;5.80;;;;;;;;;;5091744;28;20477;-69
2024/01/08 07:18:39;;;;;;;9.13;5.68;;;;;;;;;;5074812;28;20085;-69
2024/01/08 07:21:05;;;;;;;12.68;6.32;;;;;;;;;;5079426;28;20034;-70
2024/01/08 07:23:30;;;;;;;11.07;6.57;;;;;;;;;;5079090;28;20031;-69
2024/01/08 07:25:56;;;;;;;10.77;6.03;;;;;;;;;;5075765;28;20059;-69
2024/01/08 07:28:21;;;;;;;13.10;6.00;;;;;;;;;;5081460;28;20730;-69
2024/01/08 07:30:46;;;;;;;8.85;5.72;;;;;;;;;;5080218;28;20151;-69
2024/01/08 07:33:13;;;;;;;10.73;6.47;;;;;;;;;;5079737;28;20036;-70
2024/01/08 07:35:38;;;;;;;11.75;6.88;;;;;;;;;;5079175;28;20047;-69
2024/01/08 07:38:03;;;;;;;12.68;6.60;;;;;;;;;;5078633;28;20032;-69
2024/01/08 07:40:29;;;;;;;9.27;6.28;;;;;;;;;;5079337;28;20844;-69
2024/01/08 07:42:55;;;;;;;10.02;6.43;;;;;;;;;;5079488;28;20697;-69
2024/01/08 07:45:21;;;;;;;9.77;6.10;;;;;;;;;;5079169;28;20085;-69
2024/01/08 07:47:48;;;;;;;9.70;6.30;;;;;;;;;;5074733;28;20034;-69
2024/01/08 07:50:13;;;;;;;10.00;6.55;;;;;;;;;;5077826;28;20039;-69
2024/01/08 07:52:38;;;;;;;15.48;7.00;;;;;;;;;;5079637;28;20082;-69
2024/01/08 07:55:04;;;;;;;17.98;7.03;;;;;;;;;;5084799;28;20042;-70
2024/01/08 07:57:29;;;;;;;15.93;6.88;;;;;;;;;;5081239;28;20097;-69
2024/01/08 07:59:55;;;;;;;14.00;7.13;;;;;;;;;;5080034;28;20355;-69
2024/01/08 08:02:20;;;;;;;11.43;7.20;;;;;;;;;;5085306;28;20024;-69
2024/01/08 08:04:46;;;;;;;11.35;6.93;;;;;;;;;;5083213;28;20032;-69
2024/01/08 08:07:11;;;;;;;14.88;8.13;;;;;;;;;;5070847;28;20024;-69
2024/01/08 08:09:36;;;;;;;13.23;6.97;;;;;;;;;;5073234;28;20041;-70
2024/01/08 08:12:01;;;;;;;10.98;6.70;;;;;;;;;;5074210;28;20060;-69
2024/01/08 08:14:26;;;;;;;11.73;8.60;;;;;;;;;;5076412;28;20063;-69
2024/01/08 08:16:53;;;;;;;12.07;8.15;;;;;;;;;;5081072;28;20020;-70
2024/01/08 08:19:18;;;;;;;16.40;7.50;;;;;;;;;;5083978;28;20039;-69
2024/01/08 08:21:43;;;;;;;14.82;8.13;;;;;;;;;;5081685;28;20763;-69
2024/01/08 08:24:08;;;;;;;12.80;7.00;;;;;;;;;;5090975;28;20035;-69
2024/01/08 08:26:33;;;;;;;11.07;7.57;;;;;;;;;;5079502;28;20028;-69
2024/01/08 08:29:00;;;;;;;10.07;7.00;;;;;;;;;;5084514;28;20023;-69
2024/01/08 08:31:25;;;;;;;12.35;7.63;;;;;;;;;;5087694;28;20169;-70
2024/01/08 08:33:50;;;;;;;14.18;8.50;;;;;;;;;;5092825;28;20095;-69
2024/01/08 08:36:15;;;;;;;10.50;6.75;;;;;;;;;;5044198;28;20034;-69
2024/01/08 08:38:41;;;;;;;13.65;8.13;;;;;;;;;;5048612;28;20032;-69
2024/01/08 08:41:06;;;;;;;13.43;8.70;;;;;;;;;;5051870;28;20027;-68
2024/01/08 08:43:31;;;;;;;17.75;9.35;;;;;;;;;;5050579;28;20034;-71
2024/01/08 08:45:57;;;;;;;12.25;7.35;;;;;;;;;;5053257;28;20023;-70
2024/01/08 08:48:22;;;;;;;17.10;9.82;;;;;;;;;;5061527;28;20036;-70
2024/01/08 08:50:47;;;;;;;14.85;9.15;;;;;;;;;;5060957;28;20054;-70
2024/01/08 08:53:13;;;;;;;13.93;8.40;;;;;;;;;;5040396;28;20463;-69
2024/01/08 08:55:38;;;;;;;11.93;8.75;;;;;;;;;;5063735;28;20473;-70
2024/01/08 08:58:08;;;;;;;15.60;9.48;;;;;;;;;;5077198;28;20502;-71
2024/01/08 09:00:34;;;;;;;13.82;8.15;;;;;;;;;;5088404;28;20020;-69
2024/01/08 09:03:02;;;;;;;19.17;8.70;;;;;;;;;;5082152;28;20024;-69
2024/01/08 09:05:28;;;;;;;13.13;8.48;;;;;;;;;;5088345;28;20008;-69
2024/01/08 09:07:53;;;;;;;14.10;8.82;;;;;;;;;;5089490;28;20032;-69
2024/01/08 09:10:18;;;;;;;13.60;9.25;;;;;;;;;;5087358;28;20036;-70
2024/01/08 09:12:43;;;;;;;15.32;9.15;;;;;;;;;;5089900;28;20028;-70
2024/01/08 09:15:09;;;;;;;14.00;8.80;;;;;;;;;;5088007;28;20023;-69
2024/01/08 09:17:35;;;;;;;12.13;8.07;;;;;;;;;;5089591;28;20016;-69
2024/01/08 09:20:00;;;;;;;11.85;7.60;;;;;;;;;;5089397;28;20020;-69
2024/01/08 09:22:25;;;;;;;13.32;9.50;;;;;;;;;;5090852;28;20034;-68
2024/01/08 09:24:50;;;;;;;13.00;9.15;;;;;;;;;;5086252;28;20031;-68
2024/01/08 09:27:16;;;;;;;14.07;9.50;;;;;;;;;;5090846;28;20092;-69
2024/01/08 09:29:41;;;;;;;16.95;10.02;;;;;;;;;;5090314;28;20078;-68
2024/01/08 09:32:06;;;;;;;16.92;9.70;;;;;;;;;;5091989;28;20024;-68
2024/01/08 09:34:31;;;;;;;16.83;8.30;;;;;;;;;;5072185;28;20032;-69
2024/01/08 09:36:57;;;;;;;15.10;9.73;;;;;;;;;;5091719;28;20027;-68
2024/01/08 09:39:22;;;;;;;12.50;7.93;;;;;;;;;;5073793;28;20039;-69
2024/01/08 09:41:48;;;;;;;13.75;8.98;;;;;;;;;;5087111;28;20098;-69
2024/01/08 09:44:14;;;;;;;15.00;9.02;;;;;;;;;;5090296;28;20028;-69
2024/01/08 09:46:43;;;;;;;14.25;8.45;;;;;;;;;;5073094;28;20028;-69
2024/01/08 09:49:10;;;;;;;15.25;9.82;;;;;;;;;;5072510;28;20055;-68
2024/01/08 09:51:38;;;;;;;20.50;10.20;;;;;;;;;;5090335;28;20024;-69
2024/01/08 09:54:03;;;;;;;15.63;9.98;;;;;;;;;;5089034;28;20125;-68
2024/01/08 09:56:30;;;;;;;17.70;10.65;;;;;;;;;;5088980;28;20040;-69
2024/01/08 09:58:56;;;;;;;15.10;10.05;;;;;;;;;;5088706;28;20031;-69
2024/01/08 10:01:21;;;;;;;15.32;8.45;;;;;;;;;;5088953;28;20020;-69
2024/01/08 10:03:47;;;;;;;15.73;9.40;;;;;;;;;;5087598;28;20023;-69
2024/01/08 10:06:12;;;;;;;14.77;9.63;;;;;;;;;;5087677;28;20067;-70
2024/01/08 10:08:37;;;;;;;16.95;10.55;;;;;;;;;;5088441;28;21086;-70
2024/01/08 10:11:06;;;;;;;12.60;8.70;;;;;;;;;;5087616;28;20020;-70
2024/01/08 10:13:32;;;;;;;15.05;8.75;;;;;;;;;;5088771;28;20024;-70
2024/01/08 10:15:58;;;;;;;12.32;8.07;;;;;;;;;;5088221;28;20031;-69
2024/01/08 10:18:24;;;;;;;15.10;7.88;;;;;;;;;;5088085;28;20036;-69
2024/01/08 10:21:07;;;;;;;13.32;9.23;;;;;;;;;;5080867;28;20035;-69
2024/01/08 10:23:32;;;;;;;16.35;9.45;;;;;;;;;;5087129;28;20406;-69
2024/01/08 10:25:57;;;;;;;14.10;9.35;;;;;;;;;;5085299;28;20028;-69
2024/01/08 10:28:23;;;;;;;14.38;8.90;;;;;;;;;;5089528;28;20043;-69
2024/01/08 10:30:48;;;;;;;12.93;8.60;;;;;;;;;;5085877;28;20020;-70
2024/01/08 10:33:16;;;;;;;15.07;8.65;;;;;;;;;;5086160;28;20024;-69
2024/01/08 10:35:41;;;;;;;12.15;7.85;;;;;;;;;;5084848;28;20024;-68
2024/01/08 10:38:07;;;;;;;13.15;8.35;;;;;;;;;;5086735;28;20039;-69
2024/01/08 10:40:32;;;;;;;13.55;7.40;;;;;;;;;;5072637;28;20493;-69
2024/01/08 10:42:57;;;;;;;11.75;8.10;;;;;;;;;;5084851;28;20036;-68
2024/01/08 10:45:23;;;;;;;12.18;7.80;;;;;;;;;;5085908;28;20036;-69
2024/01/08 10:48:06;;;;;;;15.43;8.07;;;;;;;;;;5086475;28;20041;-69
2024/01/08 10:50:33;;;;;;;14.68;8.52;;;;;;;;;;5084640;28;20730;-68
2024/01/08 10:52:58;;;;;;;13.05;8.10;;;;;;;;;;5081917;28;20045;-69
2024/01/08 10:55:23;;;;;;;10.73;7.97;;;;;;;;;;5077081;28;20490;-69
2024/01/08 10:57:48;;;;;;;12.13;7.45;;;;;;;;;;5074074;28;20024;-69
2024/01/08 11:00:14;;;;;;;12.43;8.03;;;;;;;;;;5083580;28;20907;-69
2024/01/08 11:02:40;;;;;;;12.65;8.30;;;;;;;;;;5082488;28;20278;-69
2024/01/08 11:05:06;;;;;;;12.18;8.50;;;;;;;;;;5078134;28;20036;-69
2024/01/08 11:07:35;;;;;;;14.68;8.00;;;;;;;;;;5078194;28;20023;-69
2024/01/08 11:10:03;;;;;;;13.40;8.05;;;;;;;;;;5062400;28;20110;-69
2024/01/08 11:12:28;;;;;;;17.13;7.90;;;;;;;;;;5057734;28;20019;-68
2024/01/08 11:15:00;;;;;;;13.00;8.02;;;;;;;;;;5077956;28;20039;-69
2024/01/08 11:17:26;;;;;;;13.32;8.50;;;;;;;;;;5062381;28;20046;-69
2024/01/08 11:19:54;;;;;;;17.13;8.05;;;;;;;;;;5081057;28;20032;-69
2024/01/08 11:22:20;;;;;;;12.15;8.18;;;;;;;;;;5082107;28;20072;-68
2024/01/08 11:24:46;;;;;;;15.15;8.23;;;;;;;;;;5084203;28;20420;-69
2024/01/08 11:27:12;;;;;;;17.20;9.45;;;;;;;;;;5084958;28;20028;-69
2024/01/08 11:29:38;;;;;;;11.75;8.13;;;;;;;;;;5080931;28;20036;-69
2024/01/08 11:32:39;;;;;;;12.15;8.38;;;;;;;;;;5083165;28;20035;-69
2024/01/08 11:35:07;;;;;;;11.80;7.18;;;;;;;;;;4982118;28;20499;-69
2024/01/08 11:37:33;;;;;;;13.80;8.20;;;;;;;;;;5056621;28;20118;-68
2024/01/08 11:40:06;;;;;;;10.02;6.88;;;;;;;;;;5083897;28;20027;-68
2024/01/08 11:42:32;;;;;;;13.77;8.13;;;;;;;;;;5083492;28;20032;-69
2024/01/08 11:44:58;;;;;;;13.40;7.88;;;;;;;;;;5078996;28;20035;-70
2024/01/08 11:47:23;;;;;;;16.20;7.20;;;;;;;;;;5084844;28;20036;-69
2024/01/08 11:49:50;;;;;;;13.65;6.57;;;;;;;;;;5081121;28;20020;-69
2024/01/08 11:52:16;;;;;;;12.35;5.90;;;;;;;;;;5079243;28;20024;-69
2024/01/08 11:54:45;;;;;;;10.77;5.97;;;;;;;;;;5073875;28;20378;-69
2024/01/08 11:57:10;;;;;;;12.05;6.38;;;;;;;;;;5075807;28;20028;-68
2024/01/08 11:59:36;;;;;;;8.30;4.25;;;;;;;;;;5081134;28;20036;-70
2024/01/08 12:02:10;;;;;;;6.65;4.25;;;;;;;;;;5087978;28;20024;-68
2024/01/08 12:04:36;;;;;;;7.32;4.50;;;;;;;;;;5090067;28;20024;-68
2024/01/08 12:07:01;;;;;;;6.82;4.32;;;;;;;;;;5087011;28;20032;-68
2024/01/08 12:09:31;;;;;;;7.25;4.00;;;;;;;;;;5089141;28;20367;-68
2024/01/08 12:12:06;;;;;;;6.55;3.90;;;;;;;;;;5085339;28;20020;-68
2024/01/08 12:14:32;;;;;;;6.78;3.63;;;;;;;;;;5087700;28;20028;-67
2024/01/08 12:16:57;;;;;;;6.30;4.07;;;;;;;;;;5086819;28;20074;-68
2024/01/08 12:19:32;;;;;;;8.40;4.15;;;;;;;;;;5088713;28;20076;-68
2024/01/08 12:21:57;;;;;;;6.63;3.95;;;;;;;;;;5088088;28;20054;-68
2024/01/08 12:24:22;;;;;;;7.60;3.95;;;;;;;;;;5087789;28;20069;-69
2024/01/08 12:26:47;;;;;;;8.65;4.15;;;;;;;;;;5083565;28;20020;-68
2024/01/08 12:29:15;;;;;;;4.93;3.20;;;;;;;;;;5089145;28;20475;-68
2024/01/08 12:31:43;;;;;;;5.97;3.30;;;;;;;;;;5087753;28;20612;-68
2024/01/08 12:34:08;;;;;;;7.85;3.38;;;;;;;;;;5088354;28;20030;-68
2024/01/08 12:36:33;;;;;;;7.65;3.90;;;;;;;;;;5087382;28;20028;-68
2024/01/08 12:38:59;;;;;;;7.07;3.17;;;;;;;;;;5087596;28;20359;-68
2024/01/08 12:41:24;;;;;;;5.22;3.25;;;;;;;;;;5088203;28;20478;-68
2024/01/08 12:43:49;;;;;;;6.25;3.58;;;;;;;;;;5090166;28;20062;-68
2024/01/08 12:46:14;;;;;;;5.97;3.80;;;;;;;;;;5066746;28;20032;-68
2024/01/08 12:48:40;;;;;;;5.47;2.78;;;;;;;;;;5088989;28;20020;-68
2024/01/08 12:51:05;;;;;;;6.13;3.15;;;;;;;;;;5087024;28;20039;-68
2024/01/08 12:53:30;;;;;;;4.95;2.50;;;;;;;;;;5087722;28;20028;-68
2024/01/08 12:55:56;;;;;;;5.72;2.90;;;;;;;;;;5088631;28;20031;-68
2024/01/08 12:58:21;;;;;;;4.13;2.38;;;;;;;;;;5089245;28;20537;-71
2024/01/08 13:00:46;;;;;;;5.65;2.95;;;;;;;;;;5089509;28;20085;-67
2024/01/08 13:03:12;;;;;;;5.40;2.75;;;;;;;;;;5080237;28;20413;-67
2024/01/08 13:05:38;;;;;;;4.75;2.45;;;;;;;;;;5083195;28;20471;-67
2024/01/08 13:08:04;;;;;;;6.35;3.65;;;;;;;;;;5080957;28;20029;-68
2024/01/08 13:10:29;;;;;;;5.68;2.92;;;;;;;;;;5081787;28;20390;-70
2024/01/08 13:12:54;;;;;;;6.18;2.95;;;;;;;;;;5081210;28;20123;-67
2024/01/08 13:15:19;;;;;;;5.70;2.85;;;;;;;;;;5083292;28;20062;-69
2024/01/08 13:17:45;;;;;;;4.63;2.47;;;;;;;;;;5077721;28;20124;-69
2024/01/08 13:20:10;;;;;;;5.13;2.88;;;;;;;;;;5086369;28;20036;-69
2024/01/08 13:22:36;;;;;;;5.50;2.78;;;;;;;;;;5087378;28;20040;-69
2024/01/08 13:25:02;;;;;;;6.07;2.72;;;;;;;;;;5088318;28;20109;-69
2024/01/08 13:27:28;;;;;;;6.57;2.97;;;;;;;;;;5090009;28;20028;-69
2024/01/08 13:29:53;;;;;;;6.13;3.30;;;;;;;;;;5088377;28;20039;-69
2024/01/08 13:32:19;;;;;;;4.15;2.03;;;;;;;;;;5087708;28;20024;-69
2024/01/08 13:34:44;;;;;;;4.78;2.63;;;;;;;;;;5086187;28;20406;-69
2024/01/08 13:37:09;;;;;;;6.13;3.08;;;;;;;;;;5085787;28;20040;-68
2024/01/08 13:39:35;;;;;;;10.00;3.03;;;;;;;;;;5078173;28;20394;-69
2024/01/08 13:42:00;;;;;;;5.47;2.83;;;;;;;;;;5080444;28;20097;-68
2024/01/08 13:44:25;;;;;;;6.65;2.40;;;;;;;;;;5080640;28;21405;-69
2024/01/08 13:46:51;;;;;;;5.13;2.33;;;;;;;;;;5083805;28;20028;-68
2024/01/08 13:49:16;;;;;;;4.72;2.75;;;;;;;;;;5081412;28;20446;-68
2024/01/08 13:51:41;;;;;;;4.93;2.80;;;;;;;;;;5081147;28;20028;-69
2024/01/08 13:54:07;;;;;;;4.72;2.28;;;;;;;;;;5079388;28;20050;-69
2024/01/08 13:56:33;;;;;;;3.80;2.13;;;;;;;;;;5080180;28;20027;-69
2024/01/08 13:58:59;;;;;;;5.43;2.63;;;;;;;;;;5078543;28;20075;-68
2024/01/08 14:01:25;;;;;;;5.75;2.80;;;;;;;;;;5082428;28;20032;-68
2024/01/08 14:03:50;;;;;;;4.20;2.08;;;;;;;;;;5085112;28;20105;-69
2024/01/08 14:06:15;;;;;;;4.35;2.40;;;;;;;;;;5079125;28;20033;-68
2024/01/08 14:08:40;;;;;;;5.60;2.10;;;;;;;;;;5090041;28;20028;-68
2024/01/08 14:11:06;;;;;;;6.68;2.53;;;;;;;;;;5090970;28;20023;-69
2024/01/08 14:13:31;;;;;;;3.92;2.08;;;;;;;;;;5091954;28;20023;-68
2024/01/08 14:15:56;;;;;;;7.00;3.35;;;;;;;;;;5087671;28;20032;-70
2024/01/08 14:18:22;;;;;;;6.60;2.97;;;;;;;;;;5092429;28;20020;-69
2024/01/08 14:20:47;;;;;;;4.38;2.50;;;;;;;;;;5091189;28;20048;-69
2024/01/08 14:23:12;;;;;;;5.43;2.55;;;;;;;;;;5088332;28;20072;-66
2024/01/08 14:25:37;;;;;;;4.43;2.35;;;;;;;;;;5091580;28;20028;-69
2024/01/08 14:28:03;;;;;;;5.25;2.42;;;;;;;;;;5090976;28;20031;-68